Latest Coastal Weather Observations for Portland Airport

IDS60701

Issued at 1:41 pm CDT Tuesday 3 March 2015 (issued every 10 minutes, with the page automatically refreshed every 10 minutes)

About coastal observations | Map of coastal stations | Coastal observations for SA | Marine services | Other Formats
Station Details ID: 090171 Name: CASHMORE AIRPORT Lat: -38.31 Lon: 141.47 Height: 80.9 m
Data from the previous 72 hours. | See also: Recent months at Portland Airport
Date/Time
CDT
Temp

°C
Wind Pressure Rain
since 9am
mm
Weather Cloud Vis
km
Sea
Height
m
Swell
Dir
 
Speed
knots
Gust
knots
hPa Trend Height
m
Period
s
Dir
03/01:30pm 19.8 WSW 10 14 1017.9 - 0.0 - - 10 - - - -
03/01:00pm 19.1 WSW 11 15 1018.3 - 0.0 - Partly cloudy 10 - - - -
03/12:30pm 18.7 SW 8 13 1018.6 - 0.0 - Partly cloudy 10 - - - -
03/12:00pm 19.6 WSW 9 13 1018.9 - 0.0 - Partly cloudy 10 - - - -
03/11:30am 17.9 SSW 7 10 1019.1 - 0.0 - Cloudy 10 - - - -
03/11:00am 17.8 SSW 6 8 1019.1 - 0.0 - Partly cloudy 10 - - - -
03/10:30am 17.8 SSW 6 8 1019.0 - 0.0 - Partly cloudy 10 - - - -
03/10:00am 17.9 S 5 8 1018.7 - 0.0 - Partly cloudy 10 - - - -
03/09:30am 17.8 S 7 10 1018.5 - 0.0 - Partly cloudy 10 - - - -
03/09:00am 16.1 SSE 1 5 1018.4 - 0.0 - Partly cloudy 10 - - - -
03/08:30am 14.0 CALM 0 0 1018.3 - 0.0 - Cloudy 10 - - - -
03/08:00am 12.7 CALM 0 0 1018.0 - 0.0 - Partly cloudy 10 - - - -
03/07:30am 9.9 SSE 1 3 1017.7 - 0.0 - Partly cloudy 10 - - - -
03/07:00am 7.3 SSE 1 4 1017.6 - 0.0 - - 10 - - - -
03/06:30am 8.8 CALM 0 0 1017.1 - 0.0 - - 10 - - - -
03/06:00am 8.6 SSE 1 3 1016.9 - 0.0 - - 10 - - - -
03/05:30am 9.3 SSE 2 5 1016.6 - 0.0 - Partly cloudy 10 - - - -
03/05:00am 8.6 SSE 3 4 1016.5 - 0.0 - Partly cloudy 10 - - - -
03/04:30am 9.6 CALM 0 0 1016.5 - 0.0 - Partly cloudy 10 - - - -
03/04:00am 11.2 CALM 0 0 1016.4 - 0.0 - Partly cloudy 10 - - - -
03/03:30am 11.6 CALM 0 0 1016.4 - 0.0 - Partly cloudy 10 - - - -
03/03:00am 11.3 CALM 0 0 1016.4 - 0.0 - Partly cloudy 10 - - - -
03/02:30am 11.2 CALM 0 0 1016.8 - 0.0 - Partly cloudy 10 - - - -
03/02:00am 10.7 CALM 0 0 1016.9 - 0.0 - Partly cloudy 10 - - - -
03/01:30am 11.7 SSE 3 5 1017.1 - 0.0 - Partly cloudy 10 - - - -
03/01:00am 11.9 SSE 2 3 1017.2 - 0.0 - Partly cloudy 10 - - - -
03/12:30am 11.8 CALM 0 0 1017.1 - 0.0 - Partly cloudy 10 - - - -
03/12:00am 13.0 CALM 0 0 1017.2 - 0.0 - - 10 - - - -
 
Date/Time
CDT
Temp

°C
Wind Pressure Rain
since 9am
mm
Weather Cloud Vis
km
Sea
Height
m
Swell
Dir
 
Speed
knots
Gust
knots
hPa Trend Height
m
Period
s
Dir
02/11:30pm 14.1 SSE 2 4 1017.1 - 0.0 - Mostly cloudy 10 - - - -
02/11:00pm 14.5 S 4 6 1017.1 - 0.0 - - 10 - - - -
02/10:30pm 13.9 SSW 2 6 1017.4 - 0.0 - - 10 - - - -
02/10:00pm 13.0 CALM 0 0 1017.0 - 0.0 - - 10 - - - -
02/09:30pm 12.7 SSW 1 4 1017.0 - 0.0 - - 10 - - - -
02/09:00pm 13.4 CALM 0 0 1016.6 - 0.0 - - 10 - - - -
02/08:30pm 14.1 CALM 0 2 1016.4 - 0.0 - Cloudy 10 - - - -
02/08:00pm 15.1 SSW 3 4 1016.2 - 0.0 - - 10 - - - -
02/07:30pm 15.8 SSW 3 5 1015.9 - 0.0 - - 10 - - - -
02/07:00pm 16.3 SSW 3 6 1015.6 - 0.0 - - 10 - - - -
02/06:30pm 16.4 SSW 4 5 1015.5 - 0.0 - - 10 - - - -
02/06:00pm 16.3 SW 6 10 1015.2 - 0.0 - - 10 - - - -
02/05:30pm 16.7 SSW 8 12 1015.2 - 0.0 - Cloudy 10 - - - -
02/05:00pm 17.5 SW 9 13 1015.2 - 0.0 - - 10 - - - -
02/04:30pm 17.1 SSW 8 11 1014.9 - 0.0 - - 10 - - - -
02/04:00pm 19.5 SW 10 14 1014.6 - 0.0 - - 10 - - - -
02/03:30pm 19.8 WSW 11 14 1014.7 - 0.0 - - 10 - - - -
02/03:00pm 19.1 WSW 14 18 1015.1 - 0.0 - - 10 - - - -
02/02:30pm 20.7 W 12 16 1015.2 - 0.0 - Mostly cloudy 10 - - - -
02/02:00pm 20.9 W 11 15 1015.5 - 0.0 - - 10 - - - -
02/01:30pm 19.9 W 11 15 1015.6 - 0.0 - - 10 - - - -
02/01:00pm 20.6 W 10 15 1015.9 - 0.0 - - 10 - - - -
02/12:30pm 20.3 WNW 7 10 1016.4 - 0.0 - - 10 - - - -
02/12:00pm 18.7 NW 6 10 1016.7 - 0.0 - - 10 - - - -
02/11:30am 18.9 N 7 9 1017.1 - 0.0 - Partly cloudy 10 - - - -
02/11:00am 18.0 ENE 5 8 1017.3 - 0.0 - - 10 - - - -
02/10:30am 17.1 ENE 7 11 1017.4 - 0.0 - - 10 - - - -
02/10:00am 15.5 NE 7 11 1017.5 - 0.0 - - 10 - - - -
02/09:30am 13.2 NE 7 11 1017.7 - 0.0 - - 10 - - - -
02/09:00am 12.8 NE 6 9 1017.7 - 0.0 - - 10 - - - -
02/08:30am 11.9 NE 5 7 1018.1 - 0.0 - Cloudy 10 - - - -
02/08:00am 10.4 NNE 6 7 1018.1 - 0.0 - - 10 - - - -
02/07:30am 8.2 NNE 5 7 1018.0 - 0.0 - - 10 - - - -
02/07:00am 7.1 NE 6 8 1017.7 - 0.0 - - 10 - - - -
02/06:30am 6.8 NNE 6 7 1017.6 - 0.0 - - 10 - - - -
02/06:00am 6.6 NNE 6 7 1017.5 - 0.0 - - 10 - - - -
02/05:30am 5.6 NNE 4 5 1017.5 - 0.0 - - 10 - - - -
02/05:00am 5.8 E 5 6 1017.3 - 0.0 - - 10 - - - -
02/04:30am 6.0 ESE 4 5 1017.3 - 0.0 - - 10 - - - -
02/04:00am 4.2 ESE 3 4 1017.5 - 0.0 - - 10 - - - -
02/03:30am 4.6 ESE 1 4 1017.7 - 0.0 - - 10 - - - -
02/03:00am 6.3 ESE 3 5 1018.0 - 0.0 - - 10 - - - -
02/02:30am 6.3 SSE 3 4 1018.1 - 0.0 - - 10 - - - -
02/02:00am 5.1 CALM 0 0 1018.7 - 0.0 - - 10 - - - -
02/01:30am 5.9 CALM 0 0 1019.2 - 0.0 - - 10 - - - -
02/01:00am 5.9 CALM 0 0 1019.2 - 0.0 - - 10 - - - -
02/12:30am 6.0 CALM 0 0 1019.3 - 0.0 - - 10 - - - -
02/12:00am 6.7 CALM 0 0 1019.5 - 0.0 - - 10 - - - -
 
Date/Time
CDT
Temp

°C
Wind Pressure Rain
since 9am
mm
Weather Cloud Vis
km
Sea
Height
m
Swell
Dir
 
Speed
knots
Gust
knots
hPa Trend Height
m
Period
s
Dir
01/11:30pm 6.3 CALM 0 0 1019.6 - 0.0 - - 10 - - - -
01/11:00pm 8.4 CALM 0 0 1019.9 - 0.0 - - 10 - - - -
01/10:30pm 8.7 CALM 0 0 1020.1 - 0.0 - - 10 - - - -
01/10:00pm 10.1 SSE 4 5 1020.1 - 0.0 - - 10 - - - -
01/09:30pm 10.5 SE 4 5 1019.9 - 0.0 - - 10 - - - -
01/09:00pm 11.3 SE 4 5 1019.5 - 0.0 - - 10 - - - -
01/08:30pm 12.0 SE 4 5 1019.0 - 0.0 - - 10 - - - -
01/08:00pm 13.5 SE 6 8 1018.8 - 0.0 - Partly cloudy 10 - - - -
01/07:30pm 14.6 SE 8 11 1018.6 - 0.0 - Partly cloudy 10 - - - -
01/07:00pm 15.7 SE 9 12 1018.5 - 0.0 - Partly cloudy 10 - - - -
01/06:30pm 16.1 SSE 8 13 1018.3 - 0.0 - Partly cloudy 10 - - - -
01/06:00pm 16.2 SSE 9 13 1018.2 - 0.0 - Partly cloudy 10 - - - -
01/05:30pm 16.2 SSE 9 13 1017.9 - 0.0 - Mostly clear 10 - - - -
01/05:00pm 16.6 SSE 9 14 1017.9 - 0.0 - Partly cloudy 10 - - - -
01/04:30pm 16.7 S 9 15 1018.0 - 0.0 - Partly cloudy 10 - - - -
01/04:00pm 17.4 SSE 10 16 1017.9 - 0.0 - Partly cloudy 10 - - - -
01/03:30pm 16.6 SSE 10 17 1017.8 - 0.0 - Partly cloudy 10 - - - -
01/03:00pm 17.5 SSW 10 16 1018.0 - 0.0 - Partly cloudy 10 - - - -
01/02:30pm 19.2 S 10 17 1018.2 - 0.0 - Cloudy 10 - - - -
01/02:00pm 16.9 SSE 9 14 1017.8 - 0.0 - Partly cloudy 10 - - - -
01/01:30pm 18.0 S 11 17 1017.6 - 0.0 - Partly cloudy 10 - - - -
01/01:00pm 17.5 SSE 11 15 1017.6 - 0.0 - Partly cloudy 10 - - - -
01/12:30pm 18.2 S 11 18 1017.2 - 0.0 - Partly cloudy 10 - - - -
01/12:00pm 18.2 S 10 17 1017.2 - 0.0 - Partly cloudy 10 - - - -
01/11:30am 15.1 S 12 19 1017.2 - 0.0 - Cloudy 10 - - - -
01/11:00am 16.7 S 12 19 1016.6 - 0.0 - Partly cloudy 10 - - - -
01/10:30am 17.1 S 10 14 1016.0 - 0.0 - Partly cloudy 10 - - - -
01/10:00am 16.4 S 8 13 1015.5 - 0.0 - Partly cloudy 10 - - - -
01/09:30am 16.6 S 8 12 1015.0 - 0.0 - Partly cloudy 10 - - - -
01/09:00am 16.8 SSW 7 12 1014.3 - 0.0 - Partly cloudy 10 - - - -
01/08:30am 15.7 S 8 12 1013.7 - 2.6 - Cloudy 10 - - - -
01/08:00am 15.0 SSW 7 11 1013.1 - 2.6 - Partly cloudy 10 - - - -
01/07:30am 14.7 SSW 7 10 1012.6 - 2.6 - Partly cloudy 10 - - - -
01/07:00am 14.2 SSW 9 13 1011.9 - 2.6 - Partly cloudy 10 - - - -
01/06:30am 13.4 SW 5 7 1011.3 - 2.4 - Partly cloudy 10 - - - -
01/06:00am 12.9 SW 5 6 1010.7 - 2.4 - Partly cloudy 10 - - - -
01/05:30am 12.8 SW 5 6 1010.3 - 2.4 - Partly cloudy 10 - - - -
01/05:00am 13.4 SSW 5 7 1009.9 - 2.4 - Partly cloudy 10 - - - -
01/04:30am 12.2 WSW 5 6 1009.6 - 2.4 - Partly cloudy 10 - - - -
01/04:00am 12.1 WSW 6 8 1009.3 - 2.4 - - 10 - - - -
01/03:30am 13.3 SW 5 6 1009.0 - 2.4 - Partly cloudy 10 - - - -
01/03:00am 12.7 SW 5 6 1008.8 - 2.4 - Partly cloudy 10 - - - -
01/02:30am 12.8 WSW 5 5 1008.8 - 2.4 - Mostly cloudy 10 - - - -
01/02:00am 13.8 WSW 5 6 1008.8 - 2.4 - Partly cloudy 10 - - - -
01/01:30am 12.8 CALM 0 0 1008.7 - 2.4 - Partly cloudy 10 - - - -
01/01:00am 12.4 WSW 1 4 1008.7 - 2.2 - Partly cloudy 10 - - - -
01/12:30am 12.2 WSW 5 6 1008.7 - 2.2 - - 10 - - - -
01/12:00am 13.5 WSW 4 5 1008.4 - 2.2 - Partly cloudy 10 - - - -
 
Date/Time
CDT
Temp

°C
Wind Pressure Rain
since 9am
mm
Weather Cloud Vis
km
Sea
Height
m
Swell
Dir
 
Speed
knots
Gust
knots
hPa Trend Height
m
Period
s
Dir
28/11:30pm 15.4 SW 7 11 1008.5 - 2.2 - Cloudy 10 - - - -
28/11:00pm 15.3 SW 8 11 1008.5 - 2.2 - Partly cloudy 10 - - - -
28/10:30pm 15.8 SW 9 14 1008.5 - 2.2 - Partly cloudy 10 - - - -
28/10:00pm 15.7 SW 9 13 1008.2 - 2.2 - Cloudy 10 - - - -
28/09:30pm 15.6 SW 9 12 1008.0 - 2.2 - Partly cloudy 10 - - - -
28/09:00pm 15.7 SW 9 13 1007.3 - 2.2 - Partly cloudy 10 - - - -
28/08:30pm 15.4 WSW 10 13 1006.8 - 2.2 - Partly cloudy 10 - - - -
28/08:00pm 16.0 SW 11 14 1006.4 - 2.2 - Partly cloudy 10 - - - -
28/07:56pm 16.0 SW 11 16 1006.4 - 2.2 - Partly cloudy 10 - - - -
28/07:30pm 16.5 SW 11 16 1005.9 - 2.2 - Partly cloudy 10 - - - -
28/07:00pm 16.7 SW 13 19 1005.5 - 2.2 - Partly cloudy 8 - - - -
28/06:30pm 17.3 WSW 10 15 1004.7 - 2.2 - Partly cloudy 10 - - - -
28/06:00pm 17.7 SW 8 11 1004.3 - 2.2 - Partly cloudy 10 - - - -
28/05:35pm 17.4 WSW 11 15 1004.2 - 2.2 - Partly cloudy 9 - - - -
28/05:30pm 17.4 WSW 11 15 1004.1 - 2.2 Rain Cloudy 7 - - - -
28/05:18pm 18.1 W 11 15 1005.0 - 1.2 - Partly cloudy 6 - - - -
28/05:15pm 18.5 WSW 11 15 1004.6 - 0.8 - Cloudy 10 - - - -
28/05:00pm 18.7 SW 12 18 1002.6 - 0.0 - Cloudy 10 - - - -
28/04:30pm 20.6 SW 14 19 1002.3 - 0.0 - Cloudy 10 - - - -
28/04:11pm 20.5 WSW 13 19 1002.5 - 0.0 - Partly cloudy 10 - - - -
28/04:00pm 22.0 SW 14 19 1002.6 - 0.0 - Partly cloudy 10 - - - -
28/03:30pm 21.4 WSW 14 18 1002.6 - 0.0 - Partly cloudy 10 - - - -
28/03:00pm 22.5 WSW 17 21 1002.7 - 0.0 - Partly cloudy 10 - - - -
28/02:30pm 23.4 WSW 18 27 1002.9 - 0.0 - Mostly clear 10 - - - -
28/02:00pm 24.5 WSW 18 25 1002.8 - 0.0 - - 10 - - - -
28/01:30pm 24.7 WSW 18 26 1002.9 - 0.0 - - 10 - - - -
28/01:17pm 25.5 W 20 30 1002.8 - 0.0 - Partly cloudy 10 - - - -

Other Formats:

Comma delimited format used in spreadsheet applications
http://www.bom.gov.au/fwo/IDS60701/IDS60701.94828.axf

JavaScript Object Notation format (JSON) in row-major order
http://www.bom.gov.au/fwo/IDS60701/IDS60701.94828.json